createdAt,value
2024-01-15T00:00:35.214Z,100864.06
2024-01-15T00:03:02.229Z,100864.23
2024-01-15T00:05:29.118Z,100867.83
2024-01-15T00:07:56.019Z,100865.44
2024-01-15T00:10:24.079Z,100868.35
2024-01-15T00:12:51.000Z,100869.90
2024-01-15T00:15:18.007Z,100870.61
2024-01-15T00:17:45.580Z,100877.15
2024-01-15T00:20:12.884Z,100878.37
2024-01-15T00:22:40.032Z,100880.98
2024-01-15T00:25:07.511Z,100893.31
2024-01-15T00:27:34.601Z,100890.74
2024-01-15T00:30:02.198Z,100892.45
2024-01-15T00:32:29.483Z,100890.04
2024-01-15T00:34:56.614Z,100888.02
2024-01-15T00:37:23.684Z,100881.69
2024-01-15T00:39:50.858Z,100876.04
2024-01-15T00:42:18.137Z,100872.77
2024-01-15T00:44:45.097Z,100870.39
2024-01-15T00:47:12.156Z,100866.44
2024-01-15T00:49:39.172Z,100865.60
2024-01-15T00:52:06.672Z,100867.49
2024-01-15T00:54:33.626Z,100869.43
2024-01-15T00:57:00.406Z,100872.35
2024-01-15T00:59:27.386Z,100877.48
2024-01-15T01:01:54.234Z,100875.41
2024-01-15T01:04:21.298Z,100879.52
2024-01-15T01:06:48.239Z,100880.85
2024-01-15T01:09:15.396Z,100883.73
2024-01-15T01:11:43.242Z,100881.04
2024-01-15T01:14:10.373Z,100880.69
2024-01-15T01:16:39.443Z,100885.34
2024-01-15T01:19:07.820Z,100890.45
2024-01-15T01:21:34.923Z,100896.88
2024-01-15T01:24:02.312Z,100894.76
2024-01-15T01:26:29.395Z,100892.83
2024-01-15T01:28:56.874Z,100888.69
2024-01-15T01:31:26.689Z,100885.41
2024-01-15T01:33:53.915Z,100881.67
2024-01-15T01:36:21.202Z,100870.53
2024-01-15T01:38:48.214Z,100870.55
2024-01-15T01:41:16.087Z,100867.79
2024-01-15T01:43:44.060Z,100865.03
2024-01-15T01:46:11.096Z,100857.99
2024-01-15T01:48:39.211Z,100860.55
2024-01-15T01:51:06.498Z,100849.77
2024-01-15T01:53:34.812Z,100850.81
2024-01-15T01:56:01.754Z,100849.10
2024-01-15T01:58:29.098Z,100851.52
2024-01-15T02:00:56.207Z,100854.41
2024-01-15T02:03:23.476Z,100852.52
2024-01-15T02:05:51.013Z,100852.16
2024-01-15T02:08:18.203Z,100848.71
2024-01-15T02:10:45.215Z,100850.58
2024-01-15T02:13:12.430Z,100845.79
2024-01-15T02:15:39.329Z,100836.02
2024-01-15T02:18:08.564Z,100835.69
2024-01-15T02:20:35.702Z,100833.81
2024-01-15T02:23:13.177Z,100832.59
2024-01-15T02:25:47.160Z,100833.61
2024-01-15T02:28:18.382Z,100832.20
2024-01-15T02:30:45.845Z,100831.73
2024-01-15T02:33:13.739Z,100832.09
2024-01-15T02:35:41.327Z,100829.31
2024-01-15T02:38:08.690Z,100833.73
2024-01-15T02:40:35.833Z,100832.34
2024-01-15T02:43:02.899Z,100837.45
2024-01-15T02:45:30.022Z,100837.27
2024-01-15T02:47:57.166Z,100833.63
2024-01-15T02:50:24.320Z,100827.77
2024-01-15T02:52:51.398Z,100828.95
2024-01-15T02:55:18.407Z,100823.96
2024-01-15T02:57:45.497Z,100825.16
2024-01-15T03:00:13.348Z,100825.34
2024-01-15T03:02:42.971Z,100826.77
2024-01-15T03:05:11.576Z,100826.36
2024-01-15T03:07:38.791Z,100822.34
2024-01-15T03:10:06.948Z,100821.75
2024-01-15T03:12:34.057Z,100824.45
2024-01-15T03:15:01.182Z,100819.98
2024-01-15T03:17:28.539Z,100818.77
2024-01-15T03:19:55.889Z,100815.36
2024-01-15T03:22:23.136Z,100808.70
2024-01-15T03:24:50.201Z,100809.40
2024-01-15T03:27:19.663Z,100812.84
2024-01-15T03:29:47.606Z,100816.43
2024-01-15T03:32:14.572Z,100816.24
2024-01-15T03:34:41.805Z,100814.00
2024-01-15T03:37:08.867Z,100818.10
2024-01-15T03:39:36.225Z,100814.14
2024-01-15T03:42:03.569Z,100815.69
2024-01-15T03:44:30.634Z,100814.31
2024-01-15T03:46:58.790Z,100812.06
2024-01-15T03:49:25.581Z,100811.70
2024-01-15T03:51:52.949Z,100810.29
2024-01-15T03:54:21.084Z,100820.37
2024-01-15T03:56:48.092Z,100824.30
2024-01-15T03:59:15.343Z,100822.23
2024-01-15T04:01:42.365Z,100825.85
2024-01-15T04:04:09.561Z,100823.81
2024-01-15T04:06:36.845Z,100826.08
2024-01-15T04:09:03.963Z,100828.11
2024-01-15T04:11:31.127Z,100830.17
2024-01-15T04:13:58.144Z,100829.29
2024-01-15T04:16:25.956Z,100827.72
2024-01-15T04:18:53.118Z,100826.13
2024-01-15T04:21:20.323Z,100821.42
2024-01-15T04:23:47.355Z,100820.52
2024-01-15T04:26:14.392Z,100820.19
2024-01-15T04:28:41.562Z,100821.44
2024-01-15T04:31:08.843Z,100823.73
2024-01-15T04:33:36.425Z,100825.14
2024-01-15T04:36:05.922Z,100827.90
2024-01-15T04:38:33.837Z,100825.84
2024-01-15T04:41:00.887Z,100832.69
2024-01-15T04:43:28.105Z,100836.80
2024-01-15T04:45:55.187Z,100837.30
2024-01-15T04:48:23.743Z,100829.10
2024-01-15T04:50:51.418Z,100826.39
2024-01-15T04:53:18.504Z,100831.88
2024-01-15T04:55:45.770Z,100835.84
2024-01-15T04:58:12.664Z,100833.09
2024-01-15T05:00:40.114Z,100833.77
2024-01-15T05:03:07.151Z,100830.66
2024-01-15T05:05:34.393Z,100828.59
2024-01-15T05:08:01.462Z,100832.02
2024-01-15T05:10:28.616Z,100829.62
2024-01-15T05:12:55.619Z,100827.92
2024-01-15T05:15:22.863Z,100824.17
2024-01-15T05:17:50.064Z,100823.33
2024-01-15T05:20:17.548Z,100820.27
2024-01-15T05:22:44.563Z,100818.88
2024-01-15T05:25:11.512Z,100818.52
2024-01-15T05:27:38.686Z,100824.85
2024-01-15T05:30:06.619Z,100823.79
2024-01-15T05:32:34.098Z,100823.95
2024-01-15T05:35:01.201Z,100827.39
2024-01-15T05:37:28.303Z,100827.43
2024-01-15T05:39:55.454Z,100826.28
2024-01-15T05:42:22.569Z,100823.59
2024-01-15T05:44:49.718Z,100825.84
2024-01-15T05:47:16.773Z,100819.85
2024-01-15T05:49:43.791Z,100820.86
2024-01-15T05:52:10.875Z,100819.84
2024-01-15T05:54:38.759Z,100822.23
2024-01-15T05:57:06.397Z,100823.84
2024-01-15T05:59:35.034Z,100826.23
2024-01-15T06:02:02.121Z,100833.50
2024-01-15T06:04:29.258Z,100837.13
2024-01-15T06:06:56.558Z,100842.13
2024-01-15T06:09:24.522Z,100847.66
2024-01-15T06:11:51.532Z,100846.98
2024-01-15T06:14:18.480Z,100849.02
2024-01-15T06:16:45.429Z,100842.91
2024-01-15T06:19:12.545Z,100836.29
2024-01-15T06:21:39.955Z,100832.41
2024-01-15T06:24:07.358Z,100833.02
2024-01-15T06:26:34.536Z,100839.27
2024-01-15T06:29:01.502Z,100837.46
2024-01-15T06:31:28.679Z,100832.02
2024-01-15T06:33:57.563Z,100839.45
2024-01-15T06:36:24.514Z,100846.71
2024-01-15T06:38:51.511Z,100845.40
2024-01-15T06:41:18.574Z,100847.35
2024-01-15T06:43:45.527Z,100845.19
2024-01-15T06:46:13.746Z,100845.75
2024-01-15T06:48:40.876Z,100839.95
2024-01-15T06:51:08.000Z,100837.24
2024-01-15T06:53:34.929Z,100841.23
2024-01-15T06:56:02.786Z,100848.46
2024-01-15T06:58:31.881Z,100850.57
2024-01-15T07:00:59.402Z,100851.11
2024-01-15T07:03:26.562Z,100843.58
2024-01-15T07:05:56.338Z,100841.39
2024-01-15T07:08:23.785Z,100847.25
2024-01-15T07:10:51.008Z,100845.39
2024-01-15T07:13:18.357Z,100844.02
2024-01-15T07:15:45.385Z,100844.89
2024-01-15T07:18:12.673Z,100849.04
2024-01-15T07:20:40.028Z,100849.40
2024-01-15T07:23:07.684Z,100845.83
2024-01-15T07:25:34.508Z,100841.21
2024-01-15T07:28:01.562Z,100844.14
2024-01-15T07:30:28.759Z,100845.35
2024-01-15T07:32:55.875Z,100839.86
2024-01-15T07:35:23.114Z,100835.21
2024-01-15T07:37:50.076Z,100830.91
2024-01-15T07:40:17.308Z,100830.73
2024-01-15T07:42:44.731Z,100832.79
2024-01-15T07:45:12.295Z,100832.46
2024-01-15T07:47:39.307Z,100827.46
2024-01-15T07:50:07.067Z,100827.09
2024-01-15T07:52:34.590Z,100825.02
2024-01-15T07:55:01.823Z,100827.05
2024-01-15T07:57:29.378Z,100827.73
2024-01-15T07:59:56.445Z,100832.89
2024-01-15T08:02:23.283Z,100833.73
2024-01-15T08:04:50.353Z,100826.47
2024-01-15T08:07:18.604Z,100830.91
2024-01-15T08:09:48.362Z,100834.51
2024-01-15T08:12:16.408Z,100834.98
2024-01-15T08:14:43.456Z,100828.20
2024-01-15T08:17:10.456Z,100818.84
2024-01-15T08:19:37.606Z,100816.04
2024-01-15T08:22:05.099Z,100803.39
2024-01-15T08:24:32.836Z,100800.42
2024-01-15T08:27:00.001Z,100794.86
2024-01-15T08:29:26.942Z,100791.73
2024-01-15T08:31:53.971Z,100800.67
2024-01-15T08:34:21.343Z,100810.13
2024-01-15T08:36:48.464Z,100812.64
2024-01-15T08:39:15.769Z,100809.89
2024-01-15T08:41:42.688Z,100806.54
2024-01-15T08:44:09.701Z,100809.61
2024-01-15T08:46:38.425Z,100806.29
2024-01-15T08:49:05.386Z,100804.33
2024-01-15T08:51:32.465Z,100792.66
2024-01-15T08:53:59.561Z,100785.84
2024-01-15T08:56:28.046Z,100777.42
2024-01-15T08:58:55.051Z,100772.66
2024-01-15T09:01:24.206Z,100769.13
2024-01-15T09:03:51.259Z,100758.15
2024-01-15T09:06:18.521Z,100753.27
2024-01-15T09:08:45.373Z,100748.02
2024-01-15T09:11:13.156Z,100737.28
2024-01-15T09:13:43.422Z,100731.70
2024-01-15T09:16:10.425Z,100735.78
2024-01-15T09:18:37.607Z,100741.75
2024-01-15T09:21:05.882Z,100741.48
2024-01-15T09:23:33.340Z,100736.52
2024-01-15T09:26:00.481Z,100731.39
2024-01-15T09:28:27.530Z,100729.73
2024-01-15T09:30:54.647Z,100725.66
2024-01-15T09:33:21.963Z,100723.52
2024-01-15T09:35:49.693Z,100718.42
2024-01-15T09:38:16.747Z,100713.69
2024-01-15T09:40:44.123Z,100702.00
2024-01-15T09:43:11.398Z,100699.27
2024-01-15T09:45:39.173Z,100695.88
2024-01-15T09:48:08.030Z,100694.73
2024-01-15T09:50:35.185Z,100696.02
2024-01-15T09:53:02.308Z,100693.87
2024-01-15T09:55:29.908Z,100701.57
2024-01-15T09:57:57.185Z,100702.52
2024-01-15T10:00:24.405Z,100701.17
2024-01-15T10:02:51.411Z,100696.66
2024-01-15T10:05:18.458Z,100689.20
2024-01-15T10:07:45.477Z,100686.96
2024-01-15T10:10:12.676Z,100683.52
2024-01-15T10:12:40.248Z,100682.17
2024-01-15T10:15:11.486Z,100675.48
2024-01-15T10:17:39.685Z,100674.53
2024-01-15T10:20:11.379Z,100670.63
2024-01-15T10:22:42.843Z,100666.31
2024-01-15T10:25:15.835Z,100657.52
2024-01-15T10:27:43.221Z,100651.89
2024-01-15T10:30:11.474Z,100645.98
2024-01-15T10:32:38.836Z,100644.86
2024-01-15T10:35:07.819Z,100647.25
2024-01-15T10:37:35.277Z,100641.51
2024-01-15T10:40:05.799Z,100642.85
2024-01-15T10:42:33.082Z,100640.86
2024-01-15T10:45:00.274Z,100639.20
2024-01-15T10:47:27.482Z,100635.09
2024-01-15T10:49:55.273Z,100629.54
2024-01-15T10:52:22.868Z,100624.95
2024-01-15T10:54:49.782Z,100620.45
2024-01-15T10:57:16.677Z,100620.96
2024-01-15T10:59:43.797Z,100616.23
2024-01-15T11:02:13.516Z,100617.67
2024-01-15T11:04:40.574Z,100614.20
2024-01-15T11:07:07.849Z,100613.48
2024-01-15T11:09:35.563Z,100608.13
2024-01-15T11:12:11.288Z,100603.70
2024-01-15T11:14:46.148Z,100600.83
2024-01-15T11:17:14.734Z,100601.27
2024-01-15T11:19:42.120Z,100603.33
2024-01-15T11:22:09.752Z,100602.52
2024-01-15T11:24:38.387Z,100595.02
2024-01-15T11:27:06.815Z,100595.98
2024-01-15T11:29:35.728Z,100593.29
2024-01-15T11:32:09.634Z,100590.94
2024-01-15T11:35:00.566Z,100589.81
2024-01-15T11:37:52.069Z,100586.42
2024-01-15T11:40:20.528Z,100585.65
2024-01-15T11:42:48.109Z,100579.77
2024-01-15T11:45:20.332Z,100580.77
2024-01-15T11:48:01.180Z,100577.05
2024-01-15T11:50:29.663Z,100576.52
2024-01-15T11:53:07.087Z,100577.07
2024-01-15T11:55:37.140Z,100574.63
2024-01-15T11:58:09.816Z,100569.42
2024-01-15T12:00:41.431Z,100563.59
2024-01-15T12:03:08.896Z,100568.19
2024-01-15T12:05:40.566Z,100564.98
2024-01-15T12:08:11.555Z,100564.93
2024-01-15T12:10:41.144Z,100566.90
2024-01-15T12:13:14.540Z,100567.82
2024-01-15T12:15:42.904Z,100564.55
2024-01-15T12:18:11.265Z,100557.80
2024-01-15T12:20:38.624Z,100550.44
2024-01-15T12:23:08.894Z,100545.68
2024-01-15T12:25:36.582Z,100547.52
2024-01-15T12:28:04.342Z,100548.29
2024-01-15T12:30:34.491Z,100539.92
2024-01-15T12:33:05.651Z,100536.98
2024-01-15T12:35:34.196Z,100535.83
2024-01-15T12:38:04.763Z,100539.30
2024-01-15T12:40:34.118Z,100544.15
2024-01-15T12:43:01.617Z,100548.61
2024-01-15T12:45:28.720Z,100536.59
2024-01-15T12:47:56.009Z,100537.08
2024-01-15T12:50:26.878Z,100534.29
2024-01-15T12:52:53.983Z,100527.55
2024-01-15T12:55:21.212Z,100529.55
2024-01-15T12:57:48.221Z,100526.38
2024-01-15T13:00:16.555Z,100523.88
2024-01-15T13:02:44.588Z,100533.33
2024-01-15T13:05:13.436Z,100533.97
2024-01-15T13:07:41.640Z,100528.36
2024-01-15T13:10:12.524Z,100523.45
2024-01-15T13:12:41.433Z,100521.34
2024-01-15T13:15:12.599Z,100524.77
2024-01-15T13:17:40.642Z,100522.64
2024-01-15T13:20:09.510Z,100519.95
2024-01-15T13:22:39.826Z,100518.11
2024-01-15T13:25:09.310Z,100516.11
2024-01-15T13:27:37.499Z,100510.13
2024-01-15T13:30:07.225Z,100511.98
2024-01-15T13:32:36.289Z,100521.66
2024-01-15T13:35:06.340Z,100526.81
2024-01-15T13:37:34.926Z,100525.48
2024-01-15T13:40:02.083Z,100530.38
2024-01-15T13:42:29.434Z,100532.48
2024-01-15T13:44:56.470Z,100528.20
2024-01-15T13:47:23.550Z,100525.34
2024-01-15T13:49:50.832Z,100526.48
2024-01-15T13:52:18.616Z,100525.87
2024-01-15T13:54:49.923Z,100517.13
2024-01-15T13:57:19.229Z,100506.70
2024-01-15T13:59:46.773Z,100500.06
2024-01-15T14:02:17.655Z,100488.66
2024-01-15T14:04:48.515Z,100485.43
2024-01-15T14:07:16.260Z,100485.73
2024-01-15T14:09:43.364Z,100481.52
2024-01-15T14:12:10.556Z,100477.52
2024-01-15T14:14:37.619Z,100471.60
2024-01-15T14:17:04.719Z,100474.38
2024-01-15T14:19:31.872Z,100478.88
2024-01-15T14:21:59.147Z,100473.79
2024-01-15T14:24:26.353Z,100470.67
2024-01-15T14:26:53.683Z,100468.95
2024-01-15T14:29:23.186Z,100468.95
2024-01-15T14:31:50.382Z,100464.45
2024-01-15T14:34:19.032Z,100461.36
2024-01-15T14:36:47.662Z,100455.65
2024-01-15T14:39:16.788Z,100460.98
2024-01-15T14:41:43.827Z,100467.16
2024-01-15T14:44:12.923Z,100468.64
2024-01-15T14:46:39.970Z,100470.95
2024-01-15T14:49:07.225Z,100471.20
2024-01-15T14:51:35.144Z,100474.24
2024-01-15T14:54:02.336Z,100479.12
2024-01-15T14:56:29.902Z,100475.86
2024-01-15T14:58:56.944Z,100468.92
2024-01-15T15:01:24.373Z,100467.72
2024-01-15T15:03:51.855Z,100464.12
2024-01-15T15:06:19.274Z,100464.11
2024-01-15T15:08:46.465Z,100452.67
2024-01-15T15:11:14.241Z,100445.04
2024-01-15T15:13:45.519Z,100439.33
2024-01-15T15:16:14.176Z,100443.45
2024-01-15T15:18:47.183Z,100448.24
2024-01-15T15:21:14.696Z,100449.21
2024-01-15T15:23:41.689Z,100443.77
2024-01-15T15:26:09.815Z,100440.40
2024-01-15T15:28:39.523Z,100438.06
2024-01-15T15:31:08.977Z,100437.82
2024-01-15T15:33:36.090Z,100434.44
2024-01-15T15:36:05.536Z,100430.54
2024-01-15T15:38:33.132Z,100426.12
2024-01-15T15:41:00.998Z,100422.60
2024-01-15T15:43:28.456Z,100416.84
2024-01-15T15:45:56.515Z,100414.35
2024-01-15T15:48:23.848Z,100416.73
2024-01-15T15:50:51.973Z,100412.55
2024-01-15T15:53:22.891Z,100408.86
2024-01-15T15:55:49.940Z,100402.79
2024-01-15T15:58:16.983Z,100404.29
2024-01-15T16:00:44.248Z,100408.94
2024-01-15T16:03:11.317Z,100409.44
2024-01-15T16:05:45.559Z,100404.71
2024-01-15T16:08:19.479Z,100397.52
2024-01-15T16:10:47.005Z,100397.09
2024-01-15T16:13:14.759Z,100390.09
2024-01-15T16:15:44.387Z,100386.19
2024-01-15T16:23:19.342Z,100386.26
2024-01-15T16:23:33.954Z,100385.23
2024-01-15T16:24:10.399Z,100382.09
2024-01-15T16:26:33.905Z,100379.66
2024-01-15T16:29:03.230Z,100381.26
2024-01-15T16:31:32.255Z,100379.95
2024-01-15T16:34:04.679Z,100382.36
2024-01-15T16:36:33.601Z,100385.94
2024-01-15T16:39:01.766Z,100390.74
2024-01-15T16:41:29.224Z,100401.81
2024-01-15T16:43:56.473Z,100406.08
2024-01-15T16:46:23.559Z,100410.58
2024-01-15T16:48:50.658Z,100412.77
2024-01-15T16:51:17.987Z,100421.23
2024-01-15T16:53:45.196Z,100418.96
2024-01-15T16:56:12.536Z,100413.90
2024-01-15T16:58:40.016Z,100414.75
2024-01-15T17:01:08.792Z,100414.77
2024-01-15T17:03:36.309Z,100413.88
2024-01-15T17:06:03.728Z,100413.73
2024-01-15T17:08:31.462Z,100410.27
2024-01-15T17:11:00.710Z,100402.84
2024-01-15T17:13:29.472Z,100403.25
2024-01-15T17:15:56.402Z,100403.31
2024-01-15T17:18:23.555Z,100399.05
2024-01-15T17:20:50.809Z,100398.46
2024-01-15T17:23:18.989Z,100391.09
2024-01-15T17:25:46.123Z,100384.70
2024-01-15T17:28:13.482Z,100381.69
2024-01-15T17:30:40.517Z,100380.05
2024-01-15T17:33:07.701Z,100374.62
2024-01-15T17:35:35.156Z,100374.99
2024-01-15T17:38:02.569Z,100372.34
2024-01-15T17:40:30.058Z,100365.02
2024-01-15T17:42:57.194Z,100359.12
2024-01-15T17:45:25.057Z,100350.80
2024-01-15T17:47:52.439Z,100342.05
2024-01-15T17:50:19.792Z,100334.52
2024-01-15T17:52:47.013Z,100332.81
2024-01-15T17:55:14.280Z,100320.08
2024-01-15T17:57:42.340Z,100311.63
2024-01-15T18:00:10.887Z,100307.41
2024-01-15T18:02:39.175Z,100303.57
2024-01-15T18:05:06.922Z,100297.96
2024-01-15T18:07:34.018Z,100303.30
2024-01-15T18:10:01.268Z,100305.63
2024-01-15T18:12:28.620Z,100312.63
2024-01-15T18:14:55.782Z,100309.70
2024-01-15T18:17:24.008Z,100310.73
2024-01-15T18:19:51.192Z,100309.06
2024-01-15T18:22:19.172Z,100303.78
2024-01-15T18:24:46.924Z,100300.63
2024-01-15T18:27:14.192Z,100310.06
2024-01-15T18:29:41.603Z,100312.20
2024-01-15T18:32:08.740Z,100317.28
2024-01-15T18:34:36.913Z,100320.45
2024-01-15T18:37:04.936Z,100321.66
2024-01-15T18:39:34.438Z,100324.05
2024-01-15T18:42:01.688Z,100321.58
2024-01-15T18:44:29.796Z,100312.80
2024-01-15T18:46:58.387Z,100307.77
2024-01-15T18:49:25.774Z,100304.76
2024-01-15T18:51:54.464Z,100302.95
2024-01-15T18:54:22.130Z,100300.68
2024-01-15T18:56:49.210Z,100295.01
2024-01-15T18:59:16.497Z,100295.22
2024-01-15T19:01:44.525Z,100288.59
2024-01-15T19:04:12.564Z,100286.13
2024-01-15T19:06:41.734Z,100279.60
2024-01-15T19:09:10.999Z,100270.64
2024-01-15T19:11:38.324Z,100264.13
2024-01-15T19:14:06.628Z,100258.53
2024-01-15T19:16:33.664Z,100251.20
2024-01-15T19:19:00.867Z,100243.38
2024-01-15T19:21:28.061Z,100238.06
2024-01-15T19:23:55.308Z,100227.52
2024-01-15T19:26:22.807Z,100223.58
2024-01-15T19:28:49.968Z,100211.62
2024-01-15T19:31:19.818Z,100208.66
2024-01-15T19:33:46.956Z,100201.56
2024-01-15T19:36:24.661Z,100195.77
2024-01-15T19:38:52.019Z,100186.85
2024-01-15T19:41:19.526Z,100177.27
2024-01-15T19:43:46.737Z,100170.03
2024-01-15T19:46:13.767Z,100163.51
2024-01-15T19:48:41.445Z,100160.52
2024-01-15T19:51:08.778Z,100149.86
2024-01-15T19:53:37.956Z,100139.69
2024-01-15T19:56:05.296Z,100131.44
2024-01-15T19:58:36.169Z,100130.13
2024-01-15T20:01:03.707Z,100122.78
2024-01-15T20:03:30.908Z,100117.33
2024-01-15T20:05:58.192Z,100119.56
2024-01-15T20:08:25.414Z,100121.64
2024-01-15T20:10:53.861Z,100123.21
2024-01-15T20:13:21.123Z,100123.40
2024-01-15T20:15:48.674Z,100124.66
2024-01-15T20:18:16.140Z,100124.14
2024-01-15T20:20:43.520Z,100117.77
2024-01-15T20:23:10.927Z,100113.48
2024-01-15T20:25:38.314Z,100109.34
2024-01-15T20:28:07.059Z,100110.08
2024-01-15T20:30:34.234Z,100110.90
2024-01-15T20:33:01.565Z,100116.78
2024-01-15T20:35:29.592Z,100110.46
2024-01-15T20:37:58.190Z,100099.65
2024-01-15T20:40:25.201Z,100098.92
2024-01-15T20:42:53.431Z,100099.21
2024-01-15T20:45:20.406Z,100095.21
2024-01-15T20:47:47.764Z,100091.35
2024-01-15T20:50:15.819Z,100087.70
2024-01-15T20:52:42.926Z,100080.29
2024-01-15T20:55:11.868Z,100074.13
2024-01-15T20:57:39.030Z,100073.02
2024-01-15T21:00:08.910Z,100074.73
2024-01-15T21:02:37.424Z,100082.56
2024-01-15T21:05:05.129Z,100085.64
2024-01-15T21:07:32.636Z,100078.79
2024-01-15T21:09:59.984Z,100079.23
2024-01-15T21:12:27.025Z,100080.36
2024-01-15T21:14:56.433Z,100080.14
2024-01-15T21:17:24.164Z,100073.27
2024-01-15T21:19:56.278Z,100072.35
2024-01-15T21:22:23.311Z,100066.73
2024-01-15T21:24:50.465Z,100059.70
2024-01-15T21:27:17.716Z,100057.19
2024-01-15T21:29:44.693Z,100057.55
2024-01-15T21:32:11.996Z,100050.71
2024-01-15T21:34:39.013Z,100051.70
2024-01-15T21:37:06.312Z,100047.83
2024-01-15T21:39:33.808Z,100052.49
2024-01-15T21:42:01.115Z,100056.31
2024-01-15T21:44:28.834Z,100054.88
2024-01-15T21:46:56.135Z,100055.16
2024-01-15T21:49:23.254Z,100047.96
2024-01-15T21:51:50.546Z,100044.98
2024-01-15T21:54:17.597Z,100044.11
2024-01-15T21:56:44.694Z,100035.77
2024-01-15T21:59:12.127Z,100035.83
2024-01-15T22:01:39.949Z,100033.52
2024-01-15T22:04:07.950Z,100032.40
2024-01-15T22:06:37.976Z,100034.55
2024-01-15T22:09:05.109Z,100033.18
2024-01-15T22:11:32.303Z,100026.95
2024-01-15T22:13:59.425Z,100026.15
2024-01-15T22:16:26.631Z,100016.11
2024-01-15T22:18:53.790Z,100012.80
2024-01-15T22:21:20.925Z,100016.05
2024-01-15T22:23:47.825Z,100015.77
2024-01-15T22:26:14.911Z,100013.78
2024-01-15T22:28:42.916Z,100010.25
2024-01-15T22:31:10.757Z,100010.63
2024-01-15T22:33:38.030Z,100009.11
2024-01-15T22:36:05.892Z,100005.33
2024-01-15T22:38:32.900Z,100008.84
2024-01-15T22:41:00.171Z,100005.23
2024-01-15T22:43:27.936Z,99997.94
2024-01-15T22:45:55.594Z,99995.25
2024-01-15T22:48:22.898Z,100003.97
2024-01-15T22:50:50.022Z,100002.39
2024-01-15T22:53:18.684Z,99994.67
2024-01-15T22:55:45.526Z,99986.88
2024-01-15T22:58:12.573Z,99979.44
2024-01-15T23:00:44.448Z,99974.63
2024-01-15T23:03:12.042Z,99977.46
2024-01-15T23:05:39.691Z,99981.14
2024-01-15T23:08:06.938Z,99969.83
2024-01-15T23:10:33.930Z,99965.65
2024-01-15T23:13:00.897Z,99958.20
2024-01-15T23:15:29.170Z,99953.34
2024-01-15T23:17:59.501Z,99949.05
2024-01-15T23:20:26.890Z,99944.06
2024-01-15T23:22:53.913Z,99940.05
2024-01-15T23:25:20.836Z,99937.73
2024-01-15T23:27:47.783Z,99930.55
2024-01-15T23:30:15.142Z,99923.27
2024-01-15T23:32:42.277Z,99917.21
2024-01-15T23:35:09.400Z,99911.33
2024-01-15T23:37:36.607Z,99904.38
2024-01-15T23:40:05.227Z,99899.88
2024-01-15T23:42:32.623Z,99895.97
2024-01-15T23:44:59.469Z,99889.80
2024-01-15T23:47:26.680Z,99887.23
2024-01-15T23:49:53.865Z,99885.30
2024-01-15T23:52:20.719Z,99886.83
2024-01-15T23:54:48.703Z,99882.62
2024-01-15T23:57:16.128Z,99886.38
2024-01-15T23:59:43.156Z,99890.02
